Time,TemperatureF,DewpointF,PressureIn,WindDirection,WindDirectionDegrees,WindSpeedMPH,WindSpeedGustMPH,Humidity,HourlyPrecipIn,Conditions,Clouds,dailyrainin,SoftwareType,DateUTC
2013-02-15 00:00:00,54.3,51.7,30.03,North,11,2.3,2.3,91,0.01,OVC,OVC,0.21,WeatherDisplay:10.37,2013-02-15 05:00:00,
2013-02-15 00:05:00,54.3,51.7,30.03,NNW,347,3.4,3.4,91,0.01,OVC,OVC,0.00,WeatherDisplay:10.37,2013-02-15 05:05:00,
2013-02-15 00:10:00,54.3,51.7,30.02,NNE,27,0.0,0.0,91,0.01,OVC,OVC,0.00,WeatherDisplay:10.37,2013-02-15 05:10:00,
2013-02-15 00:15:00,54.3,51.7,30.02,North,7,2.3,2.3,91,0.01,OVC,OVC,0.00,WeatherDisplay:10.37,2013-02-15 05:15:00,
2013-02-15 00:20:00,54.2,51.6,30.02,NNE,31,2.3,2.3,91,0.01,OVC,OVC,0.00,WeatherDisplay:10.37,2013-02-15 05:20:00,
2013-02-15 00:25:00,54.1,51.5,30.02,NNE,17,2.3,2.3,91,0.01,OVC,OVC,0.00,WeatherDisplay:10.37,2013-02-15 05:25:00,
2013-02-15 00:30:00,54.0,51.4,30.02,North,1,2.3,2.3,91,0.01,OVC,OVC,0.00,WeatherDisplay:10.37,2013-02-15 05:30:00,
2013-02-15 00:35:00,53.9,51.3,30.02,NE,42,2.3,2.3,91,0.01,OVC,OVC,0.00,WeatherDisplay:10.37,2013-02-15 05:35:00,
2013-02-15 00:40:00,53.8,51.2,30.02,NNE,13,2.3,2.3,91,0.01,OVC,OVC,0.00,WeatherDisplay:10.37,2013-02-15 05:40:00,
2013-02-15 00:45:00,53.8,51.2,30.02,NNE,27,2.3,2.3,91,0.00,OVC,OVC,0.00,WeatherDisplay:10.37,2013-02-15 05:45:00,
2013-02-15 00:50:00,53.7,51.1,30.02,NE,42,3.4,3.4,91,0.00,OVC,OVC,0.00,WeatherDisplay:10.37,2013-02-15 05:50:00,
2013-02-15 00:55:00,53.6,51.0,30.02,NE,44,2.3,2.3,91,0.00,OVC,OVC,0.00,WeatherDisplay:10.37,2013-02-15 05:55:00,
2013-02-15 01:00:00,53.5,50.9,30.01,NNW,343,1.1,1.1,91,0.00,OVC,OVC,0.00,WeatherDisplay:10.37,2013-02-15 06:00:00,
2013-02-15 01:05:00,53.2,50.6,30.02,NNE,31,2.3,2.3,91,0.00,OVC,OVC,0.00,WeatherDisplay:10.37,2013-02-15 06:05:00,
2013-02-15 01:10:00,53.0,50.4,30.02,NE,52,1.1,0.0,91,0.00,OVC,OVC,0.00,WeatherDisplay:10.37,2013-02-15 06:10:00,
2013-02-15 01:15:00,52.9,50.3,30.03,NNE,13,2.3,2.3,91,0.00,OVC,OVC,0.00,WeatherDisplay:10.37,2013-02-15 06:15:00,
2013-02-15 01:20:00,52.8,50.2,30.02,NNE,19,2.3,2.3,91,0.00,OVC,OVC,0.00,WeatherDisplay:10.37,2013-02-15 06:20:00,
2013-02-15 01:25:00,52.8,50.2,30.02,NE,45,1.1,1.1,91,0.00,OVC,OVC,0.00,WeatherDisplay:10.37,2013-02-15 06:25:00,
2013-02-15 01:30:00,52.7,50.1,30.02,North,360,1.1,1.1,91,0.00,OVC,OVC,0.00,WeatherDisplay:10.37,2013-02-15 06:30:00,
2013-02-15 01:35:00,52.5,49.9,30.02,North,7,3.4,3.4,91,0.00,OVC,OVC,0.00,WeatherDisplay:10.37,2013-02-15 06:35:00,
2013-02-15 01:40:00,52.3,49.8,30.02,NNE,19,1.1,1.1,91,0.00,OVC,OVC,0.00,WeatherDisplay:10.37,2013-02-15 06:40:00,
2013-02-15 01:45:00,52.3,49.8,30.02,North,2,0.0,0.0,91,0.00,OVC,OVC,0.00,WeatherDisplay:10.37,2013-02-15 06:45:00,
2013-02-15 01:50:00,52.3,49.8,30.02,North,8,1.1,0.0,91,0.00,OVC,OVC,0.00,WeatherDisplay:10.37,2013-02-15 06:50:00,
2013-02-15 01:55:00,52.3,49.8,30.03,North,8,0.0,0.0,91,0.00,OVC,OVC,0.00,WeatherDisplay:10.37,2013-02-15 06:55:00,
2013-02-15 02:00:00,52.4,49.8,30.03,North,5,0.0,0.0,91,0.00,OVC,OVC,0.00,WeatherDisplay:10.37,2013-02-15 07:00:00,
2013-02-15 02:05:00,52.4,49.8,30.04,North,5,0.0,0.0,91,0.00,OVC,OVC,0.00,WeatherDisplay:10.37,2013-02-15 07:05:00,
2013-02-15 02:10:00,52.3,49.8,30.04,North,5,0.0,0.0,91,0.00,OVC,OVC,0.00,WeatherDisplay:10.37,2013-02-15 07:10:00,
2013-02-15 02:15:00,52.3,49.8,30.05,North,7,0.0,0.0,91,0.00,OVC,OVC,0.00,WeatherDisplay:10.37,2013-02-15 07:15:00,
2013-02-15 02:20:00,52.3,49.8,30.04,North,8,0.0,0.0,91,0.00,OVC,OVC,0.00,WeatherDisplay:10.37,2013-02-15 07:20:00,
2013-02-15 02:25:00,52.2,49.7,30.04,NNE,31,1.1,0.0,91,0.00,OVC,OVC,0.00,WeatherDisplay:10.37,2013-02-15 07:25:00,
2013-02-15 02:30:00,52.2,49.7,30.04,North,356,0.0,0.0,91,0.00,OVC,OVC,0.00,WeatherDisplay:10.37,2013-02-15 07:30:00,
2013-02-15 02:35:00,52.2,49.7,30.04,NE,40,1.1,1.1,91,0.00,OVC,OVC,0.00,WeatherDisplay:10.37,2013-02-15 07:35:00,
2013-02-15 02:40:00,52.2,49.7,30.04,NE,42,2.3,2.3,91,0.00,OVC,OVC,0.00,WeatherDisplay:10.37,2013-02-15 07:40:00,
2013-02-15 02:45:00,52.2,49.7,30.03,NNE,27,0.0,0.0,91,0.00,OVC,OVC,0.00,WeatherDisplay:10.37,2013-02-15 07:45:00,
2013-02-15 02:50:00,52.1,49.6,30.03,NE,40,2.3,2.3,91,0.00,OVC,OVC,0.00,WeatherDisplay:10.37,2013-02-15 07:50:00,
2013-02-15 02:55:00,52.1,49.6,30.03,NE,52,1.0,1.0,91,0.00,OVC,OVC,0.00,WeatherDisplay:10.37,2013-02-15 07:55:00,
2013-02-15 03:00:00,52.0,49.5,30.03,North,7,2.3,2.3,91,0.00,OVC,OVC,0.00,WeatherDisplay:10.37,2013-02-15 08:00:00,
2013-02-15 03:05:00,51.9,49.4,30.03,NNE,12,2.3,2.3,91,0.00,OVC,OVC,0.00,WeatherDisplay:10.37,2013-02-15 08:05:00,
2013-02-15 03:10:00,51.8,49.3,30.02,North,7,1.0,1.0,91,0.00,OVC,OVC,0.00,WeatherDisplay:10.37,2013-02-15 08:10:00,
2013-02-15 03:15:00,51.9,49.4,30.02,North,355,0.0,0.0,91,0.00,OVC,OVC,0.00,WeatherDisplay:10.37,2013-02-15 08:15:00,
2013-02-15 03:20:00,51.9,49.4,30.02,North,2,2.3,2.3,91,0.00,OVC,OVC,0.00,WeatherDisplay:10.37,2013-02-15 08:20:00,
2013-02-15 03:25:00,51.9,49.4,30.02,North,1,1.1,1.1,91,0.00,OVC,OVC,0.00,WeatherDisplay:10.37,2013-02-15 08:25:00,
2013-02-15 03:30:00,52.0,49.5,30.02,NNE,30,1.1,1.1,91,0.00,OVC,OVC,0.00,WeatherDisplay:10.37,2013-02-15 08:30:00,
2013-02-15 03:35:00,52.0,49.5,30.02,North,2,0.0,0.0,91,0.00,OVC,OVC,0.00,WeatherDisplay:10.37,2013-02-15 08:35:00,
2013-02-15 03:40:00,52.0,49.5,30.02,North,2,1.1,0.0,91,0.00,OVC,OVC,0.00,WeatherDisplay:10.37,2013-02-15 08:40:00,
2013-02-15 03:45:00,52.0,49.5,30.02,NNE,18,1.1,1.1,91,0.00,OVC,OVC,0.00,WeatherDisplay:10.37,2013-02-15 08:45:00,
2013-02-15 03:50:00,52.0,49.5,30.01,North,357,1.1,0.0,91,0.00,OVC,OVC,0.00,WeatherDisplay:10.37,2013-02-15 08:50:00,
2013-02-15 03:55:00,52.1,49.6,30.01,North,355,3.0,3.0,91,0.00,OVC,OVC,0.00,WeatherDisplay:10.37,2013-02-15 08:55:00,
2013-02-15 04:00:00,52.0,49.5,30.01,NNW,339,1.1,1.1,91,0.00,OVC,OVC,0.00,WeatherDisplay:10.37,2013-02-15 09:00:00,
2013-02-15 04:05:00,52.1,49.6,30.02,North,8,2.3,2.3,91,0.00,OVC,OVC,0.00,WeatherDisplay:10.37,2013-02-15 09:05:00,
2013-02-15 04:10:00,52.1,49.6,30.02,North,353,0.0,0.0,91,0.00,OVC,OVC,0.00,WeatherDisplay:10.37,2013-02-15 09:10:00,
2013-02-15 04:15:00,52.2,49.7,30.02,ENE,64,2.3,2.3,91,0.00,OVC,OVC,0.00,WeatherDisplay:10.37,2013-02-15 09:15:00,
2013-02-15 04:20:00,52.2,49.7,30.02,North,357,3.4,3.4,91,0.00,OVC,OVC,0.00,WeatherDisplay:10.37,2013-02-15 09:20:00,
2013-02-15 04:25:00,52.2,49.7,30.03,NNE,15,2.3,2.3,91,0.00,OVC,OVC,0.00,WeatherDisplay:10.37,2013-02-15 09:25:00,
2013-02-15 04:30:00,52.2,49.7,30.02,North,2,2.3,2.3,91,0.00,OVC,OVC,0.00,WeatherDisplay:10.37,2013-02-15 09:30:00,
2013-02-15 04:35:00,52.2,49.7,30.03,SW,236,0.0,0.0,91,0.00,OVC,OVC,0.00,WeatherDisplay:10.37,2013-02-15 09:35:00,
2013-02-15 04:40:00,52.2,49.7,30.04,NNE,16,0.0,0.0,91,0.00,OVC,OVC,0.00,WeatherDisplay:10.37,2013-02-15 09:40:00,
2013-02-15 04:45:00,52.2,49.7,30.04,NNE,23,2.3,2.3,91,0.00,OVC,OVC,0.00,WeatherDisplay:10.37,2013-02-15 09:45:00,
2013-02-15 04:50:00,52.2,49.7,30.04,NW,313,1.1,1.1,91,0.00,OVC,OVC,0.00,WeatherDisplay:10.37,2013-02-15 09:50:00,
2013-02-15 04:55:00,52.0,49.5,30.04,NE,52,3.4,3.4,91,0.00,OVC,OVC,0.00,WeatherDisplay:10.37,2013-02-15 09:55:00,
2013-02-15 05:00:00,51.8,49.3,30.04,NE,40,2.3,2.3,91,0.00,OVC,OVC,0.00,WeatherDisplay:10.37,2013-02-15 10:00:00,
2013-02-15 05:05:00,51.7,49.2,30.04,North,2,1.1,1.1,91,0.00,OVC,OVC,0.00,WeatherDisplay:10.37,2013-02-15 10:05:00,
2013-02-15 05:10:00,51.6,49.1,30.03,NNW,338,1.1,1.1,91,0.00,OVC,OVC,0.00,WeatherDisplay:10.37,2013-02-15 10:10:00,
2013-02-15 05:15:00,51.6,49.1,30.02,North,4,1.1,1.1,91,0.00,OVC,OVC,0.00,WeatherDisplay:10.37,2013-02-15 10:15:00,
2013-02-15 05:20:00,51.5,49.0,30.02,NNE,27,2.3,2.3,91,0.00,OVC,OVC,0.00,WeatherDisplay:10.37,2013-02-15 10:20:00,
2013-02-15 05:25:00,51.4,48.9,30.03,NNE,27,1.1,0.0,91,0.00,OVC,OVC,0.00,WeatherDisplay:10.37,2013-02-15 10:25:00,
2013-02-15 05:30:00,51.5,49.0,30.04,NNE,25,0.0,0.0,91,0.00,OVC,OVC,0.00,WeatherDisplay:10.37,2013-02-15 10:30:00,
2013-02-15 05:35:00,51.4,48.9,30.04,NNE,22,0.0,0.1,91,0.00,OVC,OVC,0.00,WeatherDisplay:10.37,2013-02-15 10:35:00,
2013-02-15 05:40:00,51.4,48.9,30.05,NNE,23,2.3,2.3,91,0.00,OVC,OVC,0.00,WeatherDisplay:10.37,2013-02-15 10:40:00,
2013-02-15 05:45:00,51.3,48.8,30.04,NE,34,1.0,1.0,91,0.00,OVC,OVC,0.00,WeatherDisplay:10.37,2013-02-15 10:45:00,
2013-02-15 05:50:00,51.3,48.8,30.04,NE,46,0.0,0.0,91,0.00,OVC,OVC,0.00,WeatherDisplay:10.37,2013-02-15 10:50:00,
2013-02-15 05:55:00,51.2,48.7,30.04,NNE,28,0.0,0.0,91,0.00,OVC,OVC,0.00,WeatherDisplay:10.37,2013-02-15 10:55:00,
2013-02-15 06:00:00,51.2,48.4,30.04,NNE,20,2.3,2.3,90,0.00,OVC,OVC,0.00,WeatherDisplay:10.37,2013-02-15 11:00:00,
2013-02-15 06:05:00,51.2,48.7,30.05,NNE,19,0.0,0.0,91,0.00,OVC,OVC,0.00,WeatherDisplay:10.37,2013-02-15 11:05:00,
2013-02-15 06:10:00,51.2,48.7,30.05,NNE,19,1.1,0.0,91,0.00,OVC,OVC,0.00,WeatherDisplay:10.37,2013-02-15 11:10:00,
2013-02-15 06:15:00,51.2,48.7,30.05,NNW,348,0.0,0.0,91,0.00,OVC,OVC,0.00,WeatherDisplay:10.37,2013-02-15 11:15:00,
2013-02-15 06:20:00,51.1,48.6,30.05,NE,37,3.4,3.4,91,0.00,OVC,OVC,0.00,WeatherDisplay:10.37,2013-02-15 11:20:00,
2013-02-15 06:25:00,51.1,48.6,30.05,North,352,1.1,0.0,91,0.00,OVC,OVC,0.00,WeatherDisplay:10.37,2013-02-15 11:25:00,
2013-02-15 06:30:00,51.0,48.5,30.05,ENE,59,3.4,3.4,91,0.00,OVC,OVC,0.00,WeatherDisplay:10.37,2013-02-15 11:30:00,
2013-02-15 06:34:00,50.9,48.4,30.04,NNE,12,1.1,1.5,91,0.00,OVC,OVC,0.00,WeatherDisplay:10.37,2013-02-15 11:34:00,
2013-02-15 06:35:00,50.9,48.4,30.04,NNE,12,1.1,1.5,91,0.00,OVC,OVC,0.00,WeatherDisplay:10.37,2013-02-15 11:35:00,
2013-02-15 06:40:00,50.9,48.4,30.04,NNE,12,1.1,1.5,91,0.00,OVC,OVC,0.00,WeatherDisplay:10.37,2013-02-15 11:40:00,
2013-02-15 06:48:00,50.9,48.4,30.04,NNE,12,1.1,1.5,91,0.00,OVC,OVC,0.00,WeatherDisplay:10.37,2013-02-15 11:48:00,
2013-02-15 06:53:00,50.9,48.4,30.05,NNE,22,1.1,0.0,91,0.00,OVC,OVC,0.00,WeatherDisplay:10.37,2013-02-15 11:53:00,
2013-02-15 06:58:00,50.9,48.4,30.05,NE,45,3.4,3.4,91,0.00,OVC,OVC,0.00,WeatherDisplay:10.37,2013-02-15 11:58:00,
2013-02-15 07:03:00,50.9,48.1,30.06,ENE,58,1.0,1.0,90,0.00,OVC,OVC,0.00,WeatherDisplay:10.37,2013-02-15 12:03:00,
2013-02-15 07:08:00,50.9,48.4,30.06,NNE,12,0.0,0.0,91,0.00,OVC,OVC,0.00,WeatherDisplay:10.37,2013-02-15 12:08:00,
2013-02-15 07:13:00,50.9,48.4,30.05,NNW,348,0.0,0.2,91,0.00,OVC,OVC,0.00,WeatherDisplay:10.37,2013-02-15 12:13:00,
2013-02-15 07:18:00,50.9,48.1,30.06,North,2,2.3,2.3,90,0.00,OVC,OVC,0.00,WeatherDisplay:10.37,2013-02-15 12:18:00,
2013-02-15 07:23:00,50.8,48.0,30.07,NNE,15,1.1,1.1,90,0.00,OVC,OVC,0.00,WeatherDisplay:10.37,2013-02-15 12:23:00,
2013-02-15 07:28:00,50.8,48.0,30.07,North,357,0.0,0.0,90,0.00,OVC,OVC,0.00,WeatherDisplay:10.37,2013-02-15 12:28:00,
2013-02-15 07:33:00,50.7,47.9,30.07,North,353,1.1,1.1,90,0.00,OVC,OVC,0.00,WeatherDisplay:10.37,2013-02-15 12:33:00,
2013-02-15 07:38:00,50.7,47.9,30.06,North,7,1.0,1.0,90,0.00,OVC,OVC,0.00,WeatherDisplay:10.37,2013-02-15 12:38:00,
2013-02-15 07:43:00,50.7,47.9,30.07,NNW,341,1.1,0.0,90,0.00,OVC,OVC,0.00,WeatherDisplay:10.37,2013-02-15 12:43:00,
2013-02-15 07:48:00,50.7,47.9,30.08,NW,306,1.0,1.0,90,0.00,OVC,OVC,0.00,WeatherDisplay:10.37,2013-02-15 12:48:00,
2013-02-15 07:53:00,50.7,47.9,30.08,NW,313,0.0,0.0,90,0.00,OVC,OVC,0.00,WeatherDisplay:10.37,2013-02-15 12:53:00,
2013-02-15 07:58:00,50.7,47.9,30.07,NE,46,0.0,0.0,90,0.00,OVC,OVC,0.00,WeatherDisplay:10.37,2013-02-15 12:58:00,
2013-02-15 08:03:00,50.7,47.9,30.08,NNE,15,1.1,0.0,90,0.00,OVC,OVC,0.00,WeatherDisplay:10.37,2013-02-15 13:03:00,
2013-02-15 08:08:00,50.6,47.8,30.08,North,7,2.3,2.3,90,0.00,OVC,OVC,0.00,WeatherDisplay:10.37,2013-02-15 13:08:00,
2013-02-15 08:13:00,50.6,47.8,30.09,NNE,31,2.0,2.0,90,0.00,OVC,OVC,0.00,WeatherDisplay:10.37,2013-02-15 13:13:00,
2013-02-15 08:18:00,50.6,47.8,30.09,NW,325,0.0,0.0,90,0.00,OVC,OVC,0.00,WeatherDisplay:10.37,2013-02-15 13:18:00,
2013-02-15 08:23:00,50.7,47.9,30.09,NNW,329,2.3,2.3,90,0.00,OVC,OVC,0.00,WeatherDisplay:10.37,2013-02-15 13:23:00,
2013-02-15 08:28:00,50.7,47.9,30.08,North,8,1.1,1.1,90,0.00,OVC,OVC,0.00,WeatherDisplay:10.37,2013-02-15 13:28:00,
2013-02-15 08:33:00,50.8,48.0,30.08,North,350,2.3,2.3,90,0.00,OVC,OVC,0.00,WeatherDisplay:10.37,2013-02-15 13:33:00,
2013-02-15 08:38:00,50.8,48.0,30.08,NE,34,1.1,1.1,90,0.00,OVC,OVC,0.00,WeatherDisplay:10.37,2013-02-15 13:38:00,
2013-02-15 08:43:00,50.7,47.9,30.08,North,350,3.4,3.4,90,0.00,OVC,OVC,0.00,WeatherDisplay:10.37,2013-02-15 13:43:00,
2013-02-15 08:48:00,50.7,47.9,30.08,North,7,2.3,2.3,90,0.00,OVC,OVC,0.00,WeatherDisplay:10.37,2013-02-15 13:48:00,
2013-02-15 08:53:00,50.8,48.0,30.09,North,1,1.1,1.1,90,0.00,OVC,OVC,0.00,WeatherDisplay:10.37,2013-02-15 13:53:00,
2013-02-15 08:58:00,50.6,47.8,30.09,North,3,4.6,4.6,90,0.00,OVC,OVC,0.00,WeatherDisplay:10.37,2013-02-15 13:58:00,
2013-02-15 09:03:00,50.6,47.8,30.09,North,9,1.0,1.0,90,0.00,OVC,OVC,0.00,WeatherDisplay:10.37,2013-02-15 14:03:00,
2013-02-15 09:08:00,50.7,47.9,30.09,ENE,78,0.0,0.1,90,0.00,OVC,OVC,0.00,WeatherDisplay:10.37,2013-02-15 14:08:00,
2013-02-15 09:13:00,50.7,47.9,30.10,NNE,26,1.1,0.0,90,0.00,OVC,OVC,0.00,WeatherDisplay:10.37,2013-02-15 14:13:00,
2013-02-15 09:18:00,50.8,48.0,30.10,NNE,14,2.0,2.0,90,0.00,OVC,OVC,0.00,WeatherDisplay:10.37,2013-02-15 14:18:00,
2013-02-15 09:23:00,50.8,48.0,30.10,NNE,21,2.3,0.0,90,0.00,OVC,OVC,0.00,WeatherDisplay:10.37,2013-02-15 14:23:00,
2013-02-15 09:28:00,51.0,48.2,30.10,North,8,3.4,3.4,90,0.00,OVC,OVC,0.00,WeatherDisplay:10.37,2013-02-15 14:28:00,
2013-02-15 09:33:00,51.0,48.2,30.10,North,3,1.1,1.1,90,0.00,OVC,OVC,0.00,WeatherDisplay:10.37,2013-02-15 14:33:00,
2013-02-15 09:38:00,51.2,48.4,30.09,SW,229,0.0,0.0,90,0.00,OVC,OVC,0.00,WeatherDisplay:10.37,2013-02-15 14:38:00,
2013-02-15 09:43:00,51.3,48.5,30.09,NE,41,2.3,2.3,90,0.00,OVC,OVC,0.00,WeatherDisplay:10.37,2013-02-15 14:43:00,
2013-02-15 09:48:00,51.2,48.4,30.09,North,353,3.4,3.4,90,0.00,OVC,OVC,0.00,WeatherDisplay:10.37,2013-02-15 14:48:00,
2013-02-15 09:53:00,51.3,48.5,30.09,North,4,2.3,0.0,90,0.00,OVC,OVC,0.00,WeatherDisplay:10.37,2013-02-15 14:53:00,
2013-02-15 09:58:00,51.5,48.7,30.09,NW,326,0.0,0.0,90,0.00,OVC,OVC,0.00,WeatherDisplay:10.37,2013-02-15 14:58:00,
2013-02-15 10:03:00,51.8,49.0,30.09,NNE,15,2.3,0.0,90,0.00,OVC,OVC,0.00,WeatherDisplay:10.37,2013-02-15 15:03:00,
2013-02-15 10:08:00,52.0,49.2,30.10,North,4,3.4,3.4,90,0.00,OVC,OVC,0.00,WeatherDisplay:10.37,2013-02-15 15:08:00,
2013-02-15 10:13:00,52.3,49.5,30.09,North,350,3.4,3.4,90,0.00,OVC,OVC,0.00,WeatherDisplay:10.37,2013-02-15 15:13:00,
2013-02-15 10:18:00,52.6,49.8,30.10,ENE,59,3.0,3.0,90,0.00,BKN,OVC,0.00,WeatherDisplay:10.37,2013-02-15 15:18:00,
2013-02-15 10:23:00,52.9,50.0,30.10,ENE,71,2.3,2.3,90,0.00,BKN,OVC,0.00,WeatherDisplay:10.37,2013-02-15 15:23:00,
2013-02-15 10:28:00,53.3,50.1,30.10,NNW,347,2.3,2.3,89,0.00,BKN,OVC,0.00,WeatherDisplay:10.37,2013-02-15 15:28:00,
2013-02-15 10:33:00,53.5,50.3,30.10,NNE,31,2.3,2.3,89,0.00,BKN,OVC,0.00,WeatherDisplay:10.37,2013-02-15 15:33:00,
2013-02-15 10:38:00,53.8,50.6,30.09,North,350,1.1,1.1,89,0.00,BKN,OVC,0.00,WeatherDisplay:10.37,2013-02-15 15:38:00,
2013-02-15 10:43:00,54.1,50.9,30.08,North,358,2.3,2.3,89,0.00,BKN,OVC,0.00,WeatherDisplay:10.37,2013-02-15 15:43:00,
2013-02-15 10:48:00,54.4,51.2,30.08,NNW,339,3.4,3.4,89,0.00,BKN,OVC,0.00,WeatherDisplay:10.37,2013-02-15 15:48:00,
2013-02-15 10:53:00,54.5,51.0,30.08,NNE,24,3.4,3.4,88,0.00,BKN,OVC,0.00,WeatherDisplay:10.37,2013-02-15 15:53:00,
2013-02-15 10:58:00,55.0,51.5,30.08,NE,45,3.4,3.4,88,0.00,BKN,OVC,0.00,WeatherDisplay:10.37,2013-02-15 15:58:00,
2013-02-15 11:03:00,55.4,51.6,30.08,North,350,3.4,3.4,87,0.00,FEW,OVC,0.00,WeatherDisplay:10.37,2013-02-15 16:03:00,
2013-02-15 11:08:00,55.9,52.1,30.08,NW,310,1.1,1.1,87,0.00,FEW,OVC,0.00,WeatherDisplay:10.37,2013-02-15 16:08:00,
2013-02-15 11:13:00,56.5,52.4,30.08,West,277,3.4,3.4,86,0.00,FEW,OVC,0.00,WeatherDisplay:10.37,2013-02-15 16:13:00,
2013-02-15 11:18:00,56.9,52.8,30.08,WSW,241,2.3,2.3,86,0.00,FEW,OVC,0.00,WeatherDisplay:10.37,2013-02-15 16:18:00,
2013-02-15 11:23:00,57.4,53.2,30.08,North,353,2.3,2.3,86,0.00,FEW,OVC,0.00,WeatherDisplay:10.37,2013-02-15 16:23:00,
2013-02-15 11:28:00,57.8,53.3,30.08,North,357,2.3,2.3,85,0.00,FEW,OVC,0.00,WeatherDisplay:10.37,2013-02-15 16:28:00,
2013-02-15 11:33:00,58.2,53.7,30.08,NE,52,1.1,1.1,85,0.00,FEW,OVC,0.00,WeatherDisplay:10.37,2013-02-15 16:33:00,
2013-02-15 11:38:00,58.7,53.5,30.08,North,350,3.4,3.4,83,0.00,FEW,OVC,0.00,WeatherDisplay:10.37,2013-02-15 16:38:00,
2013-02-15 11:43:00,59.0,53.5,30.08,SW,234,2.3,2.3,82,0.00,FEW,OVC,0.00,WeatherDisplay:10.37,2013-02-15 16:43:00,
2013-02-15 11:48:00,59.2,53.4,30.08,NNW,346,1.1,1.1,81,0.00,FEW,OVC,0.00,WeatherDisplay:10.37,2013-02-15 16:48:00,
2013-02-15 11:49:00,59.2,53.4,30.08,NNW,347,1.1,1.1,81,0.00,FEW,OVC,0.00,WeatherDisplay:10.37,2013-02-15 16:49:00,
2013-02-15 11:53:00,59.2,53.4,30.08,NNW,347,1.1,1.1,81,0.00,FEW,OVC,0.00,WeatherDisplay:10.37,2013-02-15 16:53:00,
2013-02-15 11:58:00,59.2,53.4,30.08,NNW,347,1.1,1.1,81,0.00,FEW,OVC,0.00,WeatherDisplay:10.37,2013-02-15 16:58:00,
2013-02-15 12:05:00,59.9,53.7,30.07,NNW,339,1.1,1.1,80,0.00,CLR,OVC,0.00,WeatherDisplay:10.37,2013-02-15 17:05:00,
2013-02-15 12:10:00,60.2,54.3,30.06,NNW,334,1.1,1.1,81,0.00,FEW,OVC,0.00,WeatherDisplay:10.37,2013-02-15 17:10:00,
2013-02-15 12:15:00,61.0,54.8,30.07,NNW,329,1.1,1.1,80,0.00,FEW,OVC,0.00,WeatherDisplay:10.37,2013-02-15 17:15:00,
2013-02-15 12:20:00,61.3,54.4,30.06,East,87,2.3,2.3,78,0.00,SCT,OVC,0.00,WeatherDisplay:10.37,2013-02-15 17:20:00,
2013-02-15 12:25:00,61.4,54.8,30.06,North,357,0.0,0.3,79,0.00,SCT,OVC,0.00,WeatherDisplay:10.37,2013-02-15 17:25:00,
2013-02-15 12:30:00,61.6,54.7,30.06,North,7,3.4,3.4,78,0.00,SCT,OVC,0.00,WeatherDisplay:10.37,2013-02-15 17:30:00,
2013-02-15 12:35:00,61.5,54.6,30.06,North,11,0.0,0.0,78,0.00,SCT,OVC,0.00,WeatherDisplay:10.37,2013-02-15 17:35:00,
2013-02-15 12:40:00,61.6,54.7,30.05,NNE,19,1.1,0.0,78,0.00,SCT,OVC,0.00,WeatherDisplay:10.37,2013-02-15 17:40:00,
2013-02-15 12:45:00,61.9,55.3,30.06,NNE,16,3.0,3.0,79,0.00,SCT,OVC,0.00,WeatherDisplay:10.37,2013-02-15 17:45:00,
2013-02-15 12:50:00,62.1,54.8,30.05,East,85,2.3,2.3,77,0.00,SCT,OVC,0.00,WeatherDisplay:10.37,2013-02-15 17:50:00,
2013-02-15 12:55:00,62.4,55.4,30.05,SW,225,1.0,1.0,78,0.00,SCT,OVC,0.00,WeatherDisplay:10.37,2013-02-15 17:55:00,
2013-02-15 13:00:00,63.1,55.8,30.05,South,188,2.3,2.3,77,0.00,SCT,OVC,0.00,WeatherDisplay:10.37,2013-02-15 18:00:00,
2013-02-15 13:05:00,63.6,56.3,30.04,NW,316,2.3,2.3,77,0.00,FEW,OVC,0.00,WeatherDisplay:10.37,2013-02-15 18:05:00,
2013-02-15 13:10:00,63.8,56.1,30.04,South,176,1.1,1.1,76,0.00,FEW,OVC,0.00,WeatherDisplay:10.37,2013-02-15 18:10:00,
2013-02-15 13:15:00,63.7,56.0,30.03,WSW,253,1.1,1.1,76,0.00,FEW,OVC,0.00,WeatherDisplay:10.37,2013-02-15 18:15:00,
2013-02-15 13:20:00,64.1,56.0,30.03,NW,322,2.3,2.3,75,0.00,FEW,OVC,0.00,WeatherDisplay:10.37,2013-02-15 18:20:00,
2013-02-15 13:25:00,64.4,56.3,30.03,NNW,331,1.1,1.3,75,0.00,FEW,OVC,0.00,WeatherDisplay:10.37,2013-02-15 18:25:00,
2013-02-15 13:30:00,64.2,55.7,30.02,ENE,77,3.4,3.4,74,0.00,FEW,OVC,0.00,WeatherDisplay:10.37,2013-02-15 18:30:00,
2013-02-15 13:35:00,64.4,56.3,30.02,South,169,1.1,1.1,75,0.00,FEW,OVC,0.00,WeatherDisplay:10.37,2013-02-15 18:35:00,
2013-02-15 13:40:00,65.0,56.5,30.02,SW,235,3.4,3.4,74,0.00,FEW,OVC,0.00,WeatherDisplay:10.37,2013-02-15 18:40:00,
2013-02-15 13:45:00,65.3,56.4,30.01,WNW,282,1.1,0.0,73,0.00,FEW,OVC,0.00,WeatherDisplay:10.37,2013-02-15 18:45:00,
2013-02-15 13:50:00,65.8,57.3,30.01,South,175,2.3,2.3,74,0.00,FEW,OVC,0.00,WeatherDisplay:10.37,2013-02-15 18:50:00,
2013-02-15 13:55:00,65.9,57.0,30.01,SSW,201,1.1,1.1,73,0.00,FEW,OVC,0.00,WeatherDisplay:10.37,2013-02-15 18:55:00,
2013-02-15 14:00:00,66.4,57.1,30.01,SSW,202,2.3,2.3,72,0.00,FEW,OVC,0.00,WeatherDisplay:10.37,2013-02-15 19:00:00,
2013-02-15 14:05:00,66.4,56.7,30.00,South,182,3.4,3.4,71,0.00,CLR,OVC,0.00,WeatherDisplay:10.37,2013-02-15 19:05:00,
2013-02-15 14:10:00,66.1,56.8,30.00,South,176,3.4,3.4,72,0.00,CLR,OVC,0.00,WeatherDisplay:10.37,2013-02-15 19:10:00,
2013-02-15 14:15:00,66.2,57.3,30.00,South,175,3.4,3.4,73,0.00,CLR,OVC,0.00,WeatherDisplay:10.37,2013-02-15 19:15:00,
2013-02-15 14:20:00,66.6,56.9,30.00,West,279,2.3,0.0,71,0.00,CLR,OVC,0.00,WeatherDisplay:10.37,2013-02-15 19:20:00,
2013-02-15 14:25:00,66.7,57.4,30.00,South,180,1.1,2.0,72,0.00,CLR,OVC,0.00,WeatherDisplay:10.37,2013-02-15 19:25:00,
2013-02-15 14:30:00,67.2,57.1,29.99,South,172,2.0,2.0,70,0.00,CLR,OVC,0.00,WeatherDisplay:10.37,2013-02-15 19:30:00,
2013-02-15 14:35:00,67.1,56.2,29.99,SSE,166,3.4,3.4,68,0.00,CLR,OVC,0.00,WeatherDisplay:10.37,2013-02-15 19:35:00,
2013-02-15 14:40:00,66.8,56.7,29.99,South,177,2.3,2.3,70,0.00,CLR,OVC,0.00,WeatherDisplay:10.37,2013-02-15 19:40:00,
2013-02-15 14:45:00,66.4,55.9,29.99,South,187,1.1,1.1,69,0.00,CLR,OVC,0.00,WeatherDisplay:10.37,2013-02-15 19:45:00,
2013-02-15 14:50:00,65.9,55.8,29.99,South,176,2.3,2.3,70,0.00,CLR,OVC,0.00,WeatherDisplay:10.37,2013-02-15 19:50:00,
2013-02-15 14:55:00,65.6,55.9,29.99,South,180,1.1,0.0,71,0.00,CLR,OVC,0.00,WeatherDisplay:10.37,2013-02-15 19:55:00,
2013-02-15 15:00:00,65.8,55.7,29.99,South,179,2.3,2.3,70,0.00,CLR,OVC,0.00,WeatherDisplay:10.37,2013-02-15 20:00:00,
2013-02-15 15:05:00,66.6,56.5,29.98,SSW,207,2.3,2.3,70,0.00,CLR,OVC,0.00,WeatherDisplay:10.37,2013-02-15 20:05:00,
2013-02-15 15:10:00,67.2,57.1,29.98,SSW,193,2.3,2.3,70,0.00,CLR,OVC,0.00,WeatherDisplay:10.37,2013-02-15 20:10:00,
2013-02-15 15:15:00,67.3,56.8,29.98,SW,236,2.3,2.3,69,0.00,CLR,OVC,0.00,WeatherDisplay:10.37,2013-02-15 20:15:00,
2013-02-15 15:20:00,67.3,56.4,29.98,SSW,202,1.0,1.0,68,0.00,CLR,OVC,0.00,WeatherDisplay:10.37,2013-02-15 20:20:00,
2013-02-15 15:25:00,67.6,55.8,29.98,SW,234,2.3,2.3,66,0.00,CLR,OVC,0.00,WeatherDisplay:10.37,2013-02-15 20:25:00,
2013-02-15 15:30:00,67.5,55.3,29.98,South,185,2.0,2.0,65,0.00,CLR,OVC,0.00,WeatherDisplay:10.37,2013-02-15 20:30:00,
2013-02-15 15:35:00,67.4,55.6,29.98,WNW,291,2.3,2.3,66,0.00,CLR,OVC,0.00,WeatherDisplay:10.37,2013-02-15 20:35:00,
2013-02-15 15:40:00,67.4,55.2,29.98,West,267,2.3,2.3,65,0.00,CLR,OVC,0.00,WeatherDisplay:10.37,2013-02-15 20:40:00,
2013-02-15 15:45:00,67.4,55.2,29.98,SW,225,1.1,1.1,65,0.00,CLR,OVC,0.00,WeatherDisplay:10.37,2013-02-15 20:45:00,
2013-02-15 15:50:00,67.5,55.3,29.98,NNW,337,3.4,3.4,65,0.00,CLR,OVC,0.00,WeatherDisplay:10.37,2013-02-15 20:50:00,
2013-02-15 15:55:00,67.3,54.7,29.98,WNW,286,3.4,3.4,64,0.00,CLR,OVC,0.00,WeatherDisplay:10.37,2013-02-15 20:55:00,
2013-02-15 16:00:00,67.1,54.9,29.98,WNW,294,1.1,1.1,65,0.00,CLR,OVC,0.00,WeatherDisplay:10.37,2013-02-15 21:00:00,
2013-02-15 16:05:00,67.0,54.0,29.98,North,354,2.3,2.3,63,0.00,CLR,OVC,0.00,WeatherDisplay:10.37,2013-02-15 21:05:00,
2013-02-15 16:10:00,67.0,54.4,29.98,WSW,244,2.3,2.3,64,0.00,CLR,OVC,0.00,WeatherDisplay:10.37,2013-02-15 21:10:00,
2013-02-15 16:15:00,66.8,54.2,29.99,NW,315,1.1,1.1,64,0.00,CLR,OVC,0.00,WeatherDisplay:10.37,2013-02-15 21:15:00,
2013-02-15 16:20:00,66.7,53.7,29.98,NW,323,0.0,0.0,63,0.00,CLR,OVC,0.00,WeatherDisplay:10.37,2013-02-15 21:20:00,
2013-02-15 16:25:00,66.6,53.6,29.98,WNW,282,1.1,1.1,63,0.00,CLR,OVC,0.00,WeatherDisplay:10.37,2013-02-15 21:25:00,
2013-02-15 16:30:00,66.5,53.5,29.98,NW,317,2.0,2.0,63,0.00,CLR,OVC,0.00,WeatherDisplay:10.37,2013-02-15 21:30:00,
2013-02-15 16:35:00,66.3,53.3,29.98,West,264,2.3,2.3,63,0.00,CLR,OVC,0.00,WeatherDisplay:10.37,2013-02-15 21:35:00,
2013-02-15 16:40:00,66.3,53.8,29.98,NW,319,2.3,2.3,64,0.00,CLR,OVC,0.00,WeatherDisplay:10.37,2013-02-15 21:40:00,
2013-02-15 16:45:00,66.2,52.8,29.98,NNW,343,2.3,2.3,62,0.00,CLR,OVC,0.00,WeatherDisplay:10.37,2013-02-15 21:45:00,
2013-02-15 16:50:00,66.0,52.2,29.98,WNW,295,2.3,2.3,61,0.00,CLR,OVC,0.00,WeatherDisplay:10.37,2013-02-15 21:50:00,
2013-02-15 16:55:00,65.9,52.1,29.98,NNW,331,1.1,1.1,61,0.00,CLR,OVC,0.00,WeatherDisplay:10.37,2013-02-15 21:55:00,
2013-02-15 17:00:00,65.9,52.1,29.98,WNW,299,1.1,1.1,61,0.00,CLR,OVC,0.00,WeatherDisplay:10.37,2013-02-15 22:00:00,
2013-02-15 17:05:00,65.8,52.0,29.98,WNW,292,1.1,0.0,61,0.00,CLR,OVC,0.00,WeatherDisplay:10.37,2013-02-15 22:05:00,
2013-02-15 17:09:00,65.8,52.0,29.98,NNW,339,1.1,0.0,61,0.00,CLR,OVC,0.00,WeatherDisplay:10.37,2013-02-15 22:09:00,
2013-02-15 17:10:00,65.8,52.0,29.98,NNW,339,1.1,0.0,61,0.00,CLR,OVC,0.00,WeatherDisplay:10.37,2013-02-15 22:10:00,
2013-02-15 17:15:00,65.8,52.0,29.98,NNW,339,1.1,0.0,61,0.00,CLR,OVC,0.00,WeatherDisplay:10.37,2013-02-15 22:15:00,
2013-02-15 17:25:00,65.5,52.1,29.98,WSW,239,1.0,0.0,62,0.00,CLR,OVC,0.00,WeatherDisplay:10.37,2013-02-15 22:25:00,
2013-02-15 17:30:00,65.4,52.5,29.98,WSW,239,0.0,0.0,63,0.00,CLR,OVC,0.00,WeatherDisplay:10.37,2013-02-15 22:30:00,
2013-02-15 17:35:00,65.3,52.8,29.98,WSW,239,0.0,0.0,64,0.00,CLR,OVC,0.00,WeatherDisplay:10.37,2013-02-15 22:35:00,
2013-02-15 17:40:00,65.2,52.7,29.98,WSW,239,0.0,0.0,64,0.00,CLR,OVC,0.00,WeatherDisplay:10.37,2013-02-15 22:40:00,
2013-02-15 17:45:00,65.0,52.9,29.97,WSW,239,0.0,0.0,65,0.00,CLR,OVC,0.00,WeatherDisplay:10.37,2013-02-15 22:45:00,
2013-02-15 17:50:00,64.8,52.8,29.97,WSW,239,0.0,0.0,65,0.00,CLR,OVC,0.00,WeatherDisplay:10.37,2013-02-15 22:50:00,
2013-02-15 17:55:00,64.6,52.6,29.97,WSW,239,0.0,0.0,65,0.00,CLR,OVC,0.00,WeatherDisplay:10.37,2013-02-15 22:55:00,
2013-02-15 18:00:00,64.3,52.7,29.97,WSW,239,0.0,0.0,66,0.00,CLR,OVC,0.00,WeatherDisplay:10.37,2013-02-15 23:00:00,
2013-02-15 18:05:00,63.9,53.1,29.97,WSW,239,0.0,0.0,68,0.00,CLR,OVC,0.00,WeatherDisplay:10.37,2013-02-15 23:05:00,
2013-02-15 18:10:00,63.6,53.2,29.97,WSW,239,0.0,0.0,69,0.00,CLR,OVC,0.00,WeatherDisplay:10.37,2013-02-15 23:10:00,
2013-02-15 18:15:00,63.1,53.5,29.97,WSW,239,0.0,0.0,71,0.00,CLR,OVC,0.00,WeatherDisplay:10.37,2013-02-15 23:15:00,
2013-02-15 18:20:00,62.6,53.8,29.97,WSW,239,0.0,0.0,73,0.00,CLR,OVC,0.00,WeatherDisplay:10.37,2013-02-15 23:20:00,
2013-02-15 18:25:00,62.1,53.7,29.97,WSW,239,0.0,0.0,74,0.00,CLR,OVC,0.00,WeatherDisplay:10.37,2013-02-15 23:25:00,
2013-02-15 18:30:00,61.6,54.0,29.97,WSW,239,0.0,0.0,76,0.00,CLR,OVC,0.00,WeatherDisplay:10.37,2013-02-15 23:30:00,
2013-02-15 18:35:00,60.9,54.0,29.97,WSW,239,0.0,0.0,78,0.00,CLR,OVC,0.00,WeatherDisplay:10.37,2013-02-15 23:35:00,
2013-02-15 18:40:00,60.1,53.6,29.97,WSW,239,0.0,0.0,79,0.00,CLR,OVC,0.00,WeatherDisplay:10.37,2013-02-15 23:40:00,
2013-02-15 18:45:00,59.6,53.4,29.97,WSW,239,0.0,0.0,80,0.00,CLR,OVC,0.00,WeatherDisplay:10.37,2013-02-15 23:45:00,
2013-02-15 18:50:00,59.1,52.9,29.97,WSW,239,0.0,0.0,80,0.00,CLR,OVC,0.00,WeatherDisplay:10.37,2013-02-15 23:50:00,
2013-02-15 18:55:00,58.7,52.9,29.97,WSW,239,0.0,0.0,81,0.00,CLR,OVC,0.00,WeatherDisplay:10.37,2013-02-15 23:55:00,
2013-02-15 19:00:00,58.5,52.7,29.97,WSW,239,0.0,0.0,81,0.00,CLR,OVC,0.00,WeatherDisplay:10.37,2013-02-16 00:00:00,
2013-02-15 19:05:00,58.2,52.7,29.98,WSW,239,0.0,0.0,82,0.00,CLR,OVC,0.00,WeatherDisplay:10.37,2013-02-16 00:05:00,
2013-02-15 19:10:00,57.7,52.2,29.98,NE,36,2.3,2.3,82,0.00,CLR,OVC,0.00,WeatherDisplay:10.37,2013-02-16 00:10:00,
2013-02-15 19:15:00,57.2,52.1,29.98,NE,36,1.1,1.1,83,0.00,CLR,OVC,0.00,WeatherDisplay:10.37,2013-02-16 00:15:00,
2013-02-15 19:20:00,57.0,52.2,29.98,NE,36,0.0,0.0,84,0.00,CLR,OVC,0.00,WeatherDisplay:10.37,2013-02-16 00:20:00,
2013-02-15 19:25:00,56.9,52.1,29.99,NE,36,0.0,0.0,84,0.00,CLR,OVC,0.00,WeatherDisplay:10.37,2013-02-16 00:25:00,
2013-02-15 19:30:00,56.8,52.3,29.98,NE,36,0.0,0.0,85,0.00,CLR,OVC,0.00,WeatherDisplay:10.37,2013-02-16 00:30:00,
2013-02-15 19:35:00,56.7,52.6,29.98,NE,36,0.0,0.0,86,0.00,CLR,OVC,0.00,WeatherDisplay:10.37,2013-02-16 00:35:00,
2013-02-15 19:40:00,56.6,52.5,29.98,NE,36,0.0,0.0,86,0.00,CLR,OVC,0.00,WeatherDisplay:10.37,2013-02-16 00:40:00,
2013-02-15 19:45:00,56.4,52.3,29.99,NE,36,0.0,0.0,86,0.00,CLR,OVC,0.00,WeatherDisplay:10.37,2013-02-16 00:45:00,
2013-02-15 19:50:00,56.3,52.2,29.99,NE,36,0.0,0.0,86,0.00,CLR,OVC,0.00,WeatherDisplay:10.37,2013-02-16 00:50:00,
2013-02-15 19:55:00,56.1,52.0,29.99,NE,36,0.0,0.0,86,0.00,CLR,OVC,0.00,WeatherDisplay:10.37,2013-02-16 00:55:00,
2013-02-15 20:00:00,55.9,52.1,29.99,NE,36,0.0,0.0,87,0.00,CLR,OVC,0.00,WeatherDisplay:10.37,2013-02-16 01:00:00,
2013-02-15 20:05:00,55.7,51.9,29.99,NE,36,0.0,0.0,87,0.00,CLR,OVC,0.00,WeatherDisplay:10.37,2013-02-16 01:05:00,
2013-02-15 20:10:00,55.7,51.9,29.99,NE,36,0.0,0.0,87,0.00,CLR,OVC,0.00,WeatherDisplay:10.37,2013-02-16 01:10:00,
2013-02-15 20:15:00,55.6,51.8,30.00,NE,36,0.0,0.0,87,0.00,CLR,OVC,0.00,WeatherDisplay:10.37,2013-02-16 01:15:00,
2013-02-15 20:20:00,55.4,51.6,29.99,NE,36,0.0,0.0,87,0.00,CLR,OVC,0.00,WeatherDisplay:10.37,2013-02-16 01:20:00,
2013-02-15 20:25:00,55.2,51.4,29.99,NE,36,1.1,0.0,87,0.00,CLR,OVC,0.00,WeatherDisplay:10.37,2013-02-16 01:25:00,
2013-02-15 20:30:00,55.1,51.3,29.99,NE,36,1.1,1.1,87,0.00,CLR,OVC,0.00,WeatherDisplay:10.37,2013-02-16 01:30:00,
2013-02-15 20:35:00,55.0,51.2,29.99,NE,36,1.1,1.1,87,0.00,CLR,OVC,0.00,WeatherDisplay:10.37,2013-02-16 01:35:00,
2013-02-15 20:40:00,54.9,51.1,29.99,NE,35,1.1,1.1,87,0.00,CLR,OVC,0.00,WeatherDisplay:10.37,2013-02-16 01:40:00,
2013-02-15 20:45:00,54.9,51.1,29.99,NE,36,1.1,1.1,87,0.00,CLR,OVC,0.00,WeatherDisplay:10.37,2013-02-16 01:45:00,
2013-02-15 20:50:00,54.8,51.0,29.99,NNE,28,1.0,1.0,87,0.00,CLR,OVC,0.00,WeatherDisplay:10.37,2013-02-16 01:50:00,
2013-02-15 20:55:00,54.8,51.0,30.00,NE,45,0.0,0.0,87,0.00,CLR,OVC,0.00,WeatherDisplay:10.37,2013-02-16 01:55:00,
2013-02-15 21:00:00,54.7,50.9,30.00,NE,45,0.0,0.0,87,0.00,CLR,OVC,0.00,WeatherDisplay:10.37,2013-02-16 02:00:00,
2013-02-15 21:05:00,54.6,50.8,30.00,NE,45,0.0,0.0,87,0.00,CLR,OVC,0.00,WeatherDisplay:10.37,2013-02-16 02:05:00,
2013-02-15 21:10:00,54.4,50.6,30.00,NE,44,0.0,0.0,87,0.00,CLR,OVC,0.00,WeatherDisplay:10.37,2013-02-16 02:10:00,
2013-02-15 21:15:00,54.2,50.7,30.00,NE,45,0.0,0.0,88,0.00,CLR,OVC,0.00,WeatherDisplay:10.37,2013-02-16 02:15:00,
2013-02-15 21:20:00,54.1,50.6,30.00,NE,44,0.0,0.0,88,0.00,CLR,OVC,0.00,WeatherDisplay:10.37,2013-02-16 02:20:00,
2013-02-15 21:25:00,53.9,50.4,30.00,NE,45,0.0,0.0,88,0.00,CLR,OVC,0.00,WeatherDisplay:10.37,2013-02-16 02:25:00,
2013-02-15 21:30:00,53.7,50.2,30.00,NE,42,0.0,0.0,88,0.00,CLR,OVC,0.00,WeatherDisplay:10.37,2013-02-16 02:30:00,
2013-02-15 21:35:00,53.5,50.0,30.01,NE,45,0.0,0.0,88,0.00,CLR,OVC,0.00,WeatherDisplay:10.37,2013-02-16 02:35:00,
2013-02-15 21:40:00,53.3,49.8,30.00,NE,45,0.0,0.0,88,0.00,CLR,OVC,0.00,WeatherDisplay:10.37,2013-02-16 02:40:00,
2013-02-15 21:45:00,53.0,49.5,30.00,NE,45,0.0,0.0,88,0.00,CLR,OVC,0.00,WeatherDisplay:10.37,2013-02-16 02:45:00,
2013-02-15 21:50:00,52.8,49.3,30.00,NE,45,0.0,0.0,88,0.00,CLR,OVC,0.00,WeatherDisplay:10.37,2013-02-16 02:50:00,
2013-02-15 21:55:00,52.7,49.2,30.01,NE,45,0.0,0.0,88,0.00,CLR,OVC,0.00,WeatherDisplay:10.37,2013-02-16 02:55:00,
2013-02-15 22:00:00,52.6,49.1,30.00,NE,45,0.0,0.0,88,0.00,CLR,OVC,0.00,WeatherDisplay:10.37,2013-02-16 03:00:00,
2013-02-15 22:05:00,52.6,49.4,30.00,NE,42,0.0,0.0,89,0.00,CLR,OVC,0.00,WeatherDisplay:10.37,2013-02-16 03:05:00,
2013-02-15 22:10:00,52.6,49.4,30.00,NE,45,0.0,0.0,89,0.00,CLR,OVC,0.00,WeatherDisplay:10.37,2013-02-16 03:10:00,
2013-02-15 22:15:00,52.5,49.4,30.01,NE,45,0.0,0.0,89,0.00,CLR,OVC,0.00,WeatherDisplay:10.37,2013-02-16 03:15:00,
2013-02-15 22:20:00,52.3,49.2,30.01,NE,44,0.0,0.0,89,0.00,CLR,OVC,0.00,WeatherDisplay:10.37,2013-02-16 03:20:00,
2013-02-15 22:25:00,52.2,49.1,30.01,NE,44,0.0,0.0,89,0.00,CLR,OVC,0.00,WeatherDisplay:10.37,2013-02-16 03:25:00,
2013-02-15 22:29:00,52.1,49.0,30.01,NE,45,0.0,0.0,89,0.00,CLR,OVC,0.00,WeatherDisplay:10.37,2013-02-16 03:29:00,
2013-02-15 22:30:00,52.1,49.0,30.01,NE,45,0.0,0.0,89,0.00,CLR,OVC,0.00,WeatherDisplay:10.37,2013-02-16 03:30:00,
2013-02-15 22:35:00,52.1,49.0,30.01,NE,45,0.0,0.0,89,0.00,CLR,OVC,0.00,WeatherDisplay:10.37,2013-02-16 03:35:00,
2013-02-15 22:40:00,51.8,48.7,30.00,NE,44,0.0,0.0,89,0.00,CLR,OVC,0.00,WeatherDisplay:10.37,2013-02-16 03:40:00,
2013-02-15 22:45:00,51.6,48.5,30.00,NE,44,0.0,0.0,89,0.00,CLR,OVC,0.00,WeatherDisplay:10.37,2013-02-16 03:45:00,
2013-02-15 22:50:00,51.7,48.6,30.00,NE,45,0.0,0.0,89,0.00,CLR,OVC,0.00,WeatherDisplay:10.37,2013-02-16 03:50:00,
2013-02-15 22:55:00,51.5,48.4,30.00,NE,44,0.0,0.0,89,0.00,CLR,OVC,0.00,WeatherDisplay:10.37,2013-02-16 03:55:00,
2013-02-15 23:00:00,51.5,48.4,30.00,NE,45,0.0,0.0,89,0.00,CLR,OVC,0.00,WeatherDisplay:10.37,2013-02-16 04:00:00,
2013-02-15 23:05:00,51.4,48.3,30.00,NE,44,0.0,0.0,89,0.00,CLR,OVC,0.00,WeatherDisplay:10.37,2013-02-16 04:05:00,
2013-02-15 23:10:00,51.3,48.2,30.00,NE,44,0.0,0.0,89,0.00,CLR,OVC,0.00,WeatherDisplay:10.37,2013-02-16 04:10:00,
2013-02-15 23:15:00,51.2,48.1,30.00,NE,45,0.0,0.0,89,0.00,CLR,OVC,0.00,WeatherDisplay:10.37,2013-02-16 04:15:00,
2013-02-15 23:20:00,51.1,48.0,30.00,NE,45,0.0,0.0,89,0.00,CLR,OVC,0.00,WeatherDisplay:10.37,2013-02-16 04:20:00,
2013-02-15 23:25:00,51.0,47.9,30.00,NE,45,0.0,0.0,89,0.00,CLR,OVC,0.00,WeatherDisplay:10.37,2013-02-16 04:25:00,
2013-02-15 23:30:00,50.9,47.8,30.00,NE,45,0.0,0.0,89,0.00,CLR,OVC,0.00,WeatherDisplay:10.37,2013-02-16 04:30:00,
2013-02-15 23:35:00,50.7,47.6,30.00,NE,45,0.0,0.0,89,0.00,CLR,OVC,0.00,WeatherDisplay:10.37,2013-02-16 04:35:00,
2013-02-15 23:40:00,50.7,47.6,30.00,NE,45,0.0,0.0,89,0.00,CLR,OVC,0.00,WeatherDisplay:10.37,2013-02-16 04:40:00,
2013-02-15 23:45:00,50.7,47.6,30.00,NE,45,0.0,0.0,89,0.00,CLR,OVC,0.00,WeatherDisplay:10.37,2013-02-16 04:45:00,
2013-02-15 23:50:00,50.8,47.7,30.00,NE,45,0.0,0.0,89,0.00,CLR,OVC,0.00,WeatherDisplay:10.37,2013-02-16 04:50:00,
2013-02-15 23:55:00,50.8,47.7,30.00,NE,45,0.0,0.0,89,0.00,CLR,OVC,0.00,WeatherDisplay:10.37,2013-02-16 04:55:00,